sensor_id;sensor_type;location;lat;lon;timestamp;pressure;altitude;pressure_sealevel;temperature;humidity
75219;BME280;63801;49.414;19.474;2023-02-28T00:01:34;94662.81;;;-2.49;73.02
75219;BME280;63801;49.414;19.474;2023-02-28T00:03:35;94656.72;;;-2.49;72.90
75219;BME280;63801;49.414;19.474;2023-02-28T00:05:35;94664.88;;;-2.51;72.80
75219;BME280;63801;49.414;19.474;2023-02-28T00:07:35;94658.00;;;-2.52;72.69
75219;BME280;63801;49.414;19.474;2023-02-28T00:09:36;94661.72;;;-2.53;72.47
75219;BME280;63801;49.414;19.474;2023-02-28T00:11:36;94656.09;;;-2.56;72.59
75219;BME280;63801;49.414;19.474;2023-02-28T00:13:42;94654.53;;;-2.57;72.47
75219;BME280;63801;49.414;19.474;2023-02-28T00:15:42;94644.78;;;-2.74;72.75
75219;BME280;63801;49.414;19.474;2023-02-28T00:17:44;94671.16;;;-2.57;72.64
75219;BME280;63801;49.414;19.474;2023-02-28T00:19:45;94652.78;;;-2.68;72.69
75219;BME280;63801;49.414;19.474;2023-02-28T00:21:45;94669.19;;;-2.66;72.79
75219;BME280;63801;49.414;19.474;2023-02-28T00:23:46;94674.03;;;-2.58;72.55
75219;BME280;63801;49.414;19.474;2023-02-28T00:25:46;94669.28;;;-2.56;72.70
75219;BME280;63801;49.414;19.474;2023-02-28T00:27:47;94669.56;;;-2.58;72.57
75219;BME280;63801;49.414;19.474;2023-02-28T00:29:48;94668.44;;;-2.62;72.70
75219;BME280;63801;49.414;19.474;2023-02-28T00:31:48;94669.47;;;-2.63;72.51
75219;BME280;63801;49.414;19.474;2023-02-28T00:33:48;94672.91;;;-2.62;72.63
75219;BME280;63801;49.414;19.474;2023-02-28T00:35:49;94674.75;;;-2.63;72.71
75219;BME280;63801;49.414;19.474;2023-02-28T00:37:49;94672.34;;;-2.64;72.50
75219;BME280;63801;49.414;19.474;2023-02-28T00:39:49;94658.34;;;-2.65;72.70
75219;BME280;63801;49.414;19.474;2023-02-28T00:41:50;94649.25;;;-2.74;72.78
75219;BME280;63801;49.414;19.474;2023-02-28T00:43:50;94664.44;;;-2.64;72.71
75219;BME280;63801;49.414;19.474;2023-02-28T00:45:50;94658.34;;;-2.65;72.70
75219;BME280;63801;49.414;19.474;2023-02-28T00:47:51;94656.78;;;-2.66;72.21
75219;BME280;63801;49.414;19.474;2023-02-28T00:49:51;94661.25;;;-2.66;72.53
75219;BME280;63801;49.414;19.474;2023-02-28T00:51:52;94655.13;;;-2.72;72.33
75219;BME280;63801;49.414;19.474;2023-02-28T00:53:53;94672.28;;;-2.69;72.60
75219;BME280;63801;49.414;19.474;2023-02-28T00:55:54;94677.81;;;-2.71;72.20
75219;BME280;63801;49.414;19.474;2023-02-28T00:57:54;94672.53;;;-2.71;72.47
75219;BME280;63801;49.414;19.474;2023-02-28T00:59:54;94678.63;;;-2.70;72.23
75219;BME280;63801;49.414;19.474;2023-02-28T01:01:54;94658.09;;;-2.85;72.42
75219;BME280;63801;49.414;19.474;2023-02-28T01:03:55;94682.06;;;-2.70;71.94
75219;BME280;63801;49.414;19.474;2023-02-28T01:05:55;94689.97;;;-2.70;72.08
75219;BME280;63801;49.414;19.474;2023-02-28T01:07:56;94679.34;;;-2.75;70.80
75219;BME280;63801;49.414;19.474;2023-02-28T01:09:56;94675.03;;;-2.81;70.96
75219;BME280;63801;49.414;19.474;2023-02-28T01:11:56;94669.69;;;-2.86;70.65
75219;BME280;63801;49.414;19.474;2023-02-28T01:13:57;94662.25;;;-2.89;70.83
75219;BME280;63801;49.414;19.474;2023-02-28T01:15:57;94664.91;;;-2.89;70.46
75219;BME280;63801;49.414;19.474;2023-02-28T01:17:58;94660.59;;;-2.95;70.61
75219;BME280;63801;49.414;19.474;2023-02-28T01:19:58;94665.94;;;-2.90;69.91
75219;BME280;63801;49.414;19.474;2023-02-28T01:22:04;94666.72;;;-2.90;70.19
75219;BME280;63801;49.414;19.474;2023-02-28T01:24:05;94660.88;;;-2.92;70.22
75219;BME280;63801;49.414;19.474;2023-02-28T01:28:06;94660.34;;;-2.94;69.54
75219;BME280;63801;49.414;19.474;2023-02-28T01:30:08;94635.13;;;-3.06;69.48
75219;BME280;63801;49.414;19.474;2023-02-28T01:32:08;94641.72;;;-3.04;69.61
75219;BME280;63801;49.414;19.474;2023-02-28T01:34:09;94661.94;;;-2.93;69.55
75219;BME280;63801;49.414;19.474;2023-02-28T01:36:15;94649.00;;;-2.94;69.22
75219;BME280;63801;49.414;19.474;2023-02-28T01:38:16;94653.25;;;-2.93;69.47
75219;BME280;63801;49.414;19.474;2023-02-28T01:40:16;94655.06;;;-2.94;68.96
75219;BME280;63801;49.414;19.474;2023-02-28T01:42:17;94653.69;;;-2.96;69.08
75219;BME280;63801;49.414;19.474;2023-02-28T01:46:55;94648.91;;;-2.99;68.81
75219;BME280;63801;49.414;19.474;2023-02-28T01:51:11;94644.06;;;-3.07;68.54
75219;BME280;63801;49.414;19.474;2023-02-28T01:53:25;94660.19;;;-3.04;68.57
75219;BME280;63801;49.414;19.474;2023-02-28T01:55:28;94652.19;;;-3.09;68.54
75219;BME280;63801;49.414;19.474;2023-02-28T01:57:32;94647.72;;;-3.08;67.97
75219;BME280;63801;49.414;19.474;2023-02-28T01:59:58;94646.69;;;-3.07;68.19
75219;BME280;63801;49.414;19.474;2023-02-28T02:02:01;94647.28;;;-3.05;68.23
75219;BME280;63801;49.414;19.474;2023-02-28T02:04:02;94625.72;;;-3.19;68.24
75219;BME280;63801;49.414;19.474;2023-02-28T02:06:04;94637.19;;;-3.08;68.09
75219;BME280;63801;49.414;19.474;2023-02-28T02:08:08;94634.00;;;-3.10;68.24
75219;BME280;63801;49.414;19.474;2023-02-28T02:10:16;94632.41;;;-3.11;67.78
75219;BME280;63801;49.414;19.474;2023-02-28T02:15:00;94631.75;;;-3.19;67.85
75219;BME280;63801;49.414;19.474;2023-02-28T02:17:25;94632.25;;;-3.22;67.42
75219;BME280;63801;49.414;19.474;2023-02-28T02:29:42;94645.25;;;-3.32;67.93
75219;BME280;63801;49.414;19.474;2023-02-28T02:36:25;94627.63;;;-3.31;67.67
75219;BME280;63801;49.414;19.474;2023-02-28T02:40:50;94624.13;;;-3.37;67.57
75219;BME280;63801;49.414;19.474;2023-02-28T02:43:01;94634.66;;;-3.37;67.60
75219;BME280;63801;49.414;19.474;2023-02-28T02:45:09;94631.78;;;-3.35;67.82
75219;BME280;63801;49.414;19.474;2023-02-28T02:47:14;94610.78;;;-3.47;67.71
75219;BME280;63801;49.414;19.474;2023-02-28T02:49:20;94628.09;;;-3.34;67.57
75219;BME280;63801;49.414;19.474;2023-02-28T02:51:22;94633.16;;;-3.33;67.92
75219;BME280;63801;49.414;19.474;2023-02-28T02:53:27;94608.16;;;-3.47;67.81
75219;BME280;63801;49.414;19.474;2023-02-28T02:55:34;94620.91;;;-3.39;67.60
75219;BME280;63801;49.414;19.474;2023-02-28T02:59:57;94636.91;;;-3.29;68.01
75219;BME280;63801;49.414;19.474;2023-02-28T03:02:01;94626.81;;;-3.32;67.84
75219;BME280;63801;49.414;19.474;2023-02-28T03:04:09;94635.88;;;-3.28;67.99
75219;BME280;63801;49.414;19.474;2023-02-28T03:06:10;94625.84;;;-3.26;68.01
75219;BME280;63801;49.414;19.474;2023-02-28T03:08:11;94634.00;;;-3.27;68.03
75219;BME280;63801;49.414;19.474;2023-02-28T03:12:34;94635.06;;;-3.28;67.87
75219;BME280;63801;49.414;19.474;2023-02-28T03:14:43;94639.53;;;-3.29;67.69
75219;BME280;63801;49.414;19.474;2023-02-28T03:17:03;94639.53;;;-3.29;67.88
75219;BME280;63801;49.414;19.474;2023-02-28T03:21:31;94641.28;;;-3.34;67.94
75219;BME280;63801;49.414;19.474;2023-02-28T03:23:38;94648.38;;;-3.35;67.85
75219;BME280;63801;49.414;19.474;2023-02-28T03:30:27;94645.97;;;-3.36;67.88
75219;BME280;63801;49.414;19.474;2023-02-28T03:32:36;94645.22;;;-3.37;68.04
75219;BME280;63801;49.414;19.474;2023-02-28T03:34:46;94650.47;;;-3.37;67.78
75219;BME280;63801;49.414;19.474;2023-02-28T03:36:53;94653.66;;;-3.35;67.83
75219;BME280;63801;49.414;19.474;2023-02-28T03:39:05;94650.47;;;-3.37;67.74
75219;BME280;63801;49.414;19.474;2023-02-28T03:41:16;94658.13;;;-3.35;67.68
75219;BME280;63801;49.414;19.474;2023-02-28T03:43:23;94664.19;;;-3.35;67.91
75219;BME280;63801;49.414;19.474;2023-02-28T03:45:30;94664.91;;;-3.39;67.58
75219;BME280;63801;49.414;19.474;2023-02-28T03:47:54;94666.66;;;-3.45;67.39
75219;BME280;63801;49.414;19.474;2023-02-28T03:52:09;94675.22;;;-3.54;67.40
75219;BME280;63801;49.414;19.474;2023-02-28T03:54:13;94674.09;;;-3.58;67.75
75219;BME280;63801;49.414;19.474;2023-02-28T03:56:18;94662.59;;;-3.69;67.66
75219;BME280;63801;49.414;19.474;2023-02-28T03:58:55;94668.41;;;-3.67;67.84
75219;BME280;63801;49.414;19.474;2023-02-28T04:01:07;94675.75;;;-3.69;67.74
75219;BME280;63801;49.414;19.474;2023-02-28T04:03:08;94674.38;;;-3.72;67.95
75219;BME280;63801;49.414;19.474;2023-02-28T04:05:09;94658.66;;;-3.83;68.17
75219;BME280;63801;49.414;19.474;2023-02-28T04:07:10;94676.94;;;-3.77;68.04
75219;BME280;63801;49.414;19.474;2023-02-28T04:09:13;94659.94;;;-3.86;68.12
75219;BME280;63801;49.414;19.474;2023-02-28T04:11:33;94674.84;;;-3.75;67.99
75219;BME280;63801;49.414;19.474;2023-02-28T04:13:35;94676.16;;;-3.77;67.79
75219;BME280;63801;49.414;19.474;2023-02-28T04:15:35;94669.75;;;-3.81;68.10
75219;BME280;63801;49.414;19.474;2023-02-28T04:17:36;94673.66;;;-3.84;67.94
75219;BME280;63801;49.414;19.474;2023-02-28T04:19:37;94671.50;;;-3.87;67.95
75219;BME280;63801;49.414;19.474;2023-02-28T04:21:39;94675.97;;;-3.87;68.24
75219;BME280;63801;49.414;19.474;2023-02-28T04:23:39;94674.34;;;-3.88;68.09
75219;BME280;63801;49.414;19.474;2023-02-28T04:25:40;94667.25;;;-3.88;68.07
75219;BME280;63801;49.414;19.474;2023-02-28T04:27:40;94668.53;;;-3.90;67.93
75219;BME280;63801;49.414;19.474;2023-02-28T04:29:41;94674.34;;;-3.88;68.14
75219;BME280;63801;49.414;19.474;2023-02-28T04:31:44;94669.09;;;-3.88;68.14
75219;BME280;63801;49.414;19.474;2023-02-28T04:33:44;94668.28;;;-3.89;68.07
75219;BME280;63801;49.414;19.474;2023-02-28T04:35:45;94670.69;;;-3.87;68.28
75219;BME280;63801;49.414;19.474;2023-02-28T04:37:45;94670.22;;;-3.84;68.48
75219;BME280;63801;49.414;19.474;2023-02-28T04:39:45;94673.91;;;-3.85;68.37
75219;BME280;63801;49.414;19.474;2023-02-28T04:41:46;94666.59;;;-3.95;68.41
75219;BME280;63801;49.414;19.474;2023-02-28T04:43:47;94676.75;;;-3.87;68.59
75219;BME280;63801;49.414;19.474;2023-02-28T04:45:47;94668.63;;;-3.85;68.45
75219;BME280;63801;49.414;19.474;2023-02-28T04:47:47;94668.38;;;-3.84;68.59
75219;BME280;63801;49.414;19.474;2023-02-28T04:49:48;94670.22;;;-3.84;68.63
75219;BME280;63801;49.414;19.474;2023-02-28T04:51:48;94661.28;;;-3.83;68.45
75219;BME280;63801;49.414;19.474;2023-02-28T04:53:49;94659.56;;;-3.89;68.62
75219;BME280;63801;49.414;19.474;2023-02-28T04:55:50;94663.69;;;-3.82;68.80
75219;BME280;63801;49.414;19.474;2023-02-28T04:57:50;94662.09;;;-3.83;68.56
75219;BME280;63801;49.414;19.474;2023-02-28T04:59:50;94649.31;;;-3.91;68.63
75219;BME280;63801;49.414;19.474;2023-02-28T05:01:51;94672.94;;;-3.79;68.58
75219;BME280;63801;49.414;19.474;2023-02-28T05:03:53;94662.88;;;-3.82;68.46
75219;BME280;63801;49.414;19.474;2023-02-28T05:05:54;94672.38;;;-3.81;68.53
75219;BME280;63801;49.414;19.474;2023-02-28T05:07:54;94667.13;;;-3.81;68.94
75219;BME280;63801;49.414;19.474;2023-02-28T05:09:55;94685.06;;;-3.78;68.64
75219;BME280;63801;49.414;19.474;2023-02-28T05:11:56;94676.59;;;-3.80;69.02
75219;BME280;63801;49.414;19.474;2023-02-28T05:13:56;94688.50;;;-3.78;68.92
75219;BME280;63801;49.414;19.474;2023-02-28T05:15:57;94686.69;;;-3.77;68.55
75219;BME280;63801;49.414;19.474;2023-02-28T05:17:57;94682.44;;;-3.78;68.89
75219;BME280;63801;49.414;19.474;2023-02-28T05:19:57;94692.75;;;-3.77;68.76
75219;BME280;63801;49.414;19.474;2023-02-28T05:21:58;94681.41;;;-3.77;68.87
75219;BME280;63801;49.414;19.474;2023-02-28T05:24:00;94681.41;;;-3.77;68.65
75219;BME280;63801;49.414;19.474;2023-02-28T05:26:01;94685.41;;;-3.75;68.83
75219;BME280;63801;49.414;19.474;2023-02-28T05:28:01;94686.19;;;-3.74;68.82
75219;BME280;63801;49.414;19.474;2023-02-28T05:30:02;94677.09;;;-3.83;68.90
75219;BME280;63801;49.414;19.474;2023-02-28T05:32:04;94692.81;;;-3.72;68.67
75219;BME280;63801;49.414;19.474;2023-02-28T05:34:04;94677.19;;;-3.78;68.70
75219;BME280;63801;49.414;19.474;2023-02-28T05:36:05;94695.91;;;-3.63;68.54
75219;BME280;63801;49.414;19.474;2023-02-28T05:38:06;94693.31;;;-3.58;68.98
75219;BME280;63801;49.414;19.474;2023-02-28T05:40:09;94701.41;;;-3.48;68.61
75219;BME280;63801;49.414;19.474;2023-02-28T05:42:10;94696.94;;;-3.47;68.29
75219;BME280;63801;49.414;19.474;2023-02-28T05:44:10;94695.81;;;-3.51;68.04
75219;BME280;63801;49.414;19.474;2023-02-28T05:46:11;94698.94;;;-3.54;67.72
75219;BME280;63801;49.414;19.474;2023-02-28T05:48:12;94704.44;;;-3.56;68.09
75219;BME280;63801;49.414;19.474;2023-02-28T05:50:12;94702.03;;;-3.57;68.23
75219;BME280;63801;49.414;19.474;2023-02-28T05:52:13;94683.19;;;-3.66;68.23
75219;BME280;63801;49.414;19.474;2023-02-28T05:54:14;94694.03;;;-3.63;67.88
75219;BME280;63801;49.414;19.474;2023-02-28T05:56:14;94704.97;;;-3.54;68.08
75219;BME280;63801;49.414;19.474;2023-02-28T05:58:14;94709.78;;;-3.51;68.12
75219;BME280;63801;49.414;19.474;2023-02-28T06:00:15;94708.19;;;-3.52;68.13
75219;BME280;63801;49.414;19.474;2023-02-28T06:02:17;94712.97;;;-3.49;68.27
75219;BME280;63801;49.414;19.474;2023-02-28T06:04:19;94715.06;;;-3.51;68.09
75219;BME280;63801;49.414;19.474;2023-02-28T06:06:19;94725.69;;;-3.46;68.55
75219;BME280;63801;49.414;19.474;2023-02-28T06:08:20;94721.78;;;-3.43;68.20
75219;BME280;63801;49.414;19.474;2023-02-28T06:10:20;94721.56;;;-3.42;68.33
75219;BME280;63801;49.414;19.474;2023-02-28T06:12:21;94721.66;;;-3.37;68.27
75219;BME280;63801;49.414;19.474;2023-02-28T06:14:21;94723.56;;;-3.32;68.12
75219;BME280;63801;49.414;19.474;2023-02-28T06:16:22;94731.31;;;-3.26;68.22
75219;BME280;63801;49.414;19.474;2023-02-28T06:18:22;94725.31;;;-3.21;68.59
75219;BME280;63801;49.414;19.474;2023-02-28T06:20:24;94718.94;;;-3.08;68.29
75219;BME280;63801;49.414;19.474;2023-02-28T06:22:26;94726.06;;;-2.92;68.44
75219;BME280;63801;49.414;19.474;2023-02-28T06:24:26;94733.69;;;-2.74;68.28
75219;BME280;63801;49.414;19.474;2023-02-28T06:26:31;94732.97;;;-2.53;68.28
75219;BME280;63801;49.414;19.474;2023-02-28T06:28:31;94711.56;;;-2.35;68.28
75219;BME280;63801;49.414;19.474;2023-02-28T06:30:32;94736.38;;;-1.92;67.57
75219;BME280;63801;49.414;19.474;2023-02-28T06:32:33;94742.97;;;-1.73;66.88
75219;BME280;63801;49.414;19.474;2023-02-28T06:34:34;94742.50;;;-1.65;66.49
75219;BME280;63801;49.414;19.474;2023-02-28T06:36:34;94739.97;;;-1.55;66.72
75219;BME280;63801;49.414;19.474;2023-02-28T06:38:35;94729.44;;;-1.50;66.33
75219;BME280;63801;49.414;19.474;2023-02-28T06:40:36;94733.97;;;-1.45;66.55
75219;BME280;63801;49.414;19.474;2023-02-28T06:42:36;94738.28;;;-1.39;66.16
75219;BME280;63801;49.414;19.474;2023-02-28T06:44:38;94732.75;;;-1.38;66.17
75219;BME280;63801;49.414;19.474;2023-02-28T06:46:42;94731.63;;;-1.42;66.08
75219;BME280;63801;49.414;19.474;2023-02-28T06:48:44;94731.91;;;-1.43;65.83
75219;BME280;63801;49.414;19.474;2023-02-28T06:50:44;94736.91;;;-1.42;66.05
75219;BME280;63801;49.414;19.474;2023-02-28T06:52:45;94713.91;;;-1.46;65.83
75219;BME280;63801;49.414;19.474;2023-02-28T06:54:45;94734.72;;;-1.23;66.19
75219;BME280;63801;49.414;19.474;2023-02-28T06:56:45;94723.53;;;-1.03;65.82
75219;BME280;63801;49.414;19.474;2023-02-28T06:58:50;94737.09;;;-0.63;65.50
75219;BME280;63801;49.414;19.474;2023-02-28T07:00:52;94735.75;;;-0.23;64.94
75219;BME280;63801;49.414;19.474;2023-02-28T07:02:53;94731.41;;;0.13;63.93
75219;BME280;63801;49.414;19.474;2023-02-28T07:04:55;94729.69;;;0.59;64.56
75219;BME280;63801;49.414;19.474;2023-02-28T07:06:55;94736.16;;;1.18;64.11
75219;BME280;63801;49.414;19.474;2023-02-28T07:08:58;94728.63;;;1.96;63.27
75219;BME280;63801;49.414;19.474;2023-02-28T07:10:58;94731.44;;;2.79;62.92
75219;BME280;63801;49.414;19.474;2023-02-28T07:12:59;94727.22;;;3.51;59.40
75219;BME280;63801;49.414;19.474;2023-02-28T07:14:59;94720.72;;;4.15;61.17
75219;BME280;63801;49.414;19.474;2023-02-28T07:17:00;94725.84;;;4.77;59.70
75219;BME280;63801;49.414;19.474;2023-02-28T07:19:00;94720.06;;;5.40;60.03
75219;BME280;63801;49.414;19.474;2023-02-28T07:21:08;94715.34;;;6.02;56.65
75219;BME280;63801;49.414;19.474;2023-02-28T07:23:09;94718.72;;;6.21;56.57
75219;BME280;63801;49.414;19.474;2023-02-28T07:25:09;94714.84;;;6.27;54.78
75219;BME280;63801;49.414;19.474;2023-02-28T07:27:09;94712.75;;;6.51;55.48
75219;BME280;63801;49.414;19.474;2023-02-28T07:29:10;94721.25;;;6.94;55.52
75219;BME280;63801;49.414;19.474;2023-02-28T07:31:11;94712.16;;;7.40;52.13
75219;BME280;63801;49.414;19.474;2023-02-28T07:33:14;94723.19;;;7.83;51.66
75219;BME280;63801;49.414;19.474;2023-02-28T07:35:14;94719.38;;;8.06;51.07
75219;BME280;63801;49.414;19.474;2023-02-28T07:37:15;94721.91;;;8.11;49.02
75219;BME280;63801;49.414;19.474;2023-02-28T07:39:15;94724.34;;;8.21;49.93
75219;BME280;63801;49.414;19.474;2023-02-28T07:41:17;94723.97;;;8.36;48.17
75219;BME280;63801;49.414;19.474;2023-02-28T07:43:17;94722.44;;;8.52;48.69
75219;BME280;63801;49.414;19.474;2023-02-28T07:45:18;94727.69;;;8.57;48.44
75219;BME280;63801;49.414;19.474;2023-02-28T07:47:19;94732.94;;;8.63;47.84
75219;BME280;63801;49.414;19.474;2023-02-28T07:49:20;94737.69;;;8.66;45.60
75219;BME280;63801;49.414;19.474;2023-02-28T07:51:22;94729.13;;;8.64;46.64
75219;BME280;63801;49.414;19.474;2023-02-28T07:53:22;94729.31;;;8.67;45.84
75219;BME280;63801;49.414;19.474;2023-02-28T07:55:22;94738.78;;;8.73;45.17
75219;BME280;63801;49.414;19.474;2023-02-28T07:57:23;94731.53;;;8.82;44.99
75219;BME280;63801;49.414;19.474;2023-02-28T07:59:23;94722.72;;;8.99;45.54
75219;BME280;63801;49.414;19.474;2023-02-28T08:01:25;94715.97;;;9.27;44.64
75219;BME280;63801;49.414;19.474;2023-02-28T08:03:25;94733.03;;;9.66;44.54
75219;BME280;63801;49.414;19.474;2023-02-28T08:05:25;94736.50;;;9.92;44.13
75219;BME280;63801;49.414;19.474;2023-02-28T08:07:26;94729.66;;;10.20;42.94
75219;BME280;63801;49.414;19.474;2023-02-28T08:09:26;94732.78;;;10.40;42.36
75219;BME280;63801;49.414;19.474;2023-02-28T08:11:27;94731.31;;;10.51;41.91
75219;BME280;63801;49.414;19.474;2023-02-28T08:13:28;94731.59;;;10.58;41.15
75219;BME280;63801;49.414;19.474;2023-02-28T08:15:29;94721.00;;;10.53;41.11
75219;BME280;63801;49.414;19.474;2023-02-28T08:17:29;94726.19;;;10.58;41.45
75219;BME280;63801;49.414;19.474;2023-02-28T08:19:30;94734.38;;;10.78;41.07
75219;BME280;63801;49.414;19.474;2023-02-28T08:21:30;94736.16;;;10.95;40.42
75219;BME280;63801;49.414;19.474;2023-02-28T08:23:31;94743.16;;;10.96;40.37
75219;BME280;63801;49.414;19.474;2023-02-28T08:25:33;94737.91;;;11.00;40.23
75219;BME280;63801;49.414;19.474;2023-02-28T08:27:34;94740.56;;;10.79;39.95
75219;BME280;63801;49.414;19.474;2023-02-28T08:29:37;94735.59;;;10.81;41.13
75219;BME280;63801;49.414;19.474;2023-02-28T08:31:37;94735.66;;;11.02;40.93
75219;BME280;63801;49.414;19.474;2023-02-28T08:33:38;94737.00;;;11.16;39.93
75219;BME280;63801;49.414;19.474;2023-02-28T08:35:39;94746.19;;;11.15;39.85
75219;BME280;63801;49.414;19.474;2023-02-28T08:37:39;94732.19;;;11.22;40.44
75219;BME280;63801;49.414;19.474;2023-02-28T08:39:40;94748.03;;;11.53;39.65
75219;BME280;63801;49.414;19.474;2023-02-28T08:41:42;94737.69;;;11.55;38.81
75219;BME280;63801;49.414;19.474;2023-02-28T08:43:42;94748.50;;;11.55;38.13
75219;BME280;63801;49.414;19.474;2023-02-28T08:45:43;94748.69;;;11.50;38.16
75219;BME280;63801;49.414;19.474;2023-02-28T08:47:43;94743.06;;;11.34;38.40
75219;BME280;63801;49.414;19.474;2023-02-28T08:49:44;94736.91;;;11.04;37.55
75219;BME280;63801;49.414;19.474;2023-02-28T08:51:44;94744.53;;;10.73;37.89
75219;BME280;63801;49.414;19.474;2023-02-28T08:53:45;94747.13;;;10.61;38.51
75219;BME280;63801;49.414;19.474;2023-02-28T08:55:45;94750.94;;;10.60;38.44
75219;BME280;63801;49.414;19.474;2023-02-28T08:57:46;94755.25;;;10.52;38.69
75219;BME280;63801;49.414;19.474;2023-02-28T08:59:46;94749.38;;;10.50;39.19
75219;BME280;63801;49.414;19.474;2023-02-28T09:01:46;94747.72;;;10.75;38.94
75219;BME280;63801;49.414;19.474;2023-02-28T09:03:48;94752.97;;;11.01;37.99
75219;BME280;63801;49.414;19.474;2023-02-28T09:06:00;94740.91;;;10.98;37.76
75219;BME280;63801;49.414;19.474;2023-02-28T09:08:00;94763.06;;;11.12;37.39
75219;BME280;63801;49.414;19.474;2023-02-28T09:10:01;94762.19;;;11.00;37.04
75219;BME280;63801;49.414;19.474;2023-02-28T09:12:02;94760.50;;;10.87;37.62
75219;BME280;63801;49.414;19.474;2023-02-28T09:14:03;94758.84;;;10.65;37.18
75219;BME280;63801;49.414;19.474;2023-02-28T09:16:05;94760.25;;;10.16;37.29
75219;BME280;63801;49.414;19.474;2023-02-28T09:18:06;94764.41;;;9.79;37.75
75219;BME280;63801;49.414;19.474;2023-02-28T09:20:07;94766.16;;;9.75;38.15
75219;BME280;63801;49.414;19.474;2023-02-28T09:22:07;94761.41;;;9.63;37.83
75219;BME280;63801;49.414;19.474;2023-02-28T09:24:08;94765.19;;;9.45;38.16
75219;BME280;63801;49.414;19.474;2023-02-28T09:26:14;94755.34;;;9.15;38.62
75219;BME280;63801;49.414;19.474;2023-02-28T09:28:15;94745.66;;;8.88;38.71
75219;BME280;63801;49.414;19.474;2023-02-28T09:30:16;94748.75;;;8.73;38.98
75219;BME280;63801;49.414;19.474;2023-02-28T09:32:16;94753.16;;;8.60;38.99
75219;BME280;63801;49.414;19.474;2023-02-28T09:34:17;94753.66;;;8.31;39.26
75219;BME280;63801;49.414;19.474;2023-02-28T09:36:18;94745.78;;;8.12;39.66
75219;BME280;63801;49.414;19.474;2023-02-28T09:38:19;94753.56;;;8.14;40.32
75219;BME280;63801;49.414;19.474;2023-02-28T09:40:24;94757.19;;;8.18;40.69
75219;BME280;63801;49.414;19.474;2023-02-28T09:42:31;94760.13;;;8.08;39.67
75219;BME280;63801;49.414;19.474;2023-02-28T09:44:35;94751.13;;;7.82;40.40
75219;BME280;63801;49.414;19.474;2023-02-28T09:46:40;94756.97;;;7.84;41.02
75219;BME280;63801;49.414;19.474;2023-02-28T09:48:45;94761.13;;;7.90;41.11
75219;BME280;63801;49.414;19.474;2023-02-28T09:50:52;94751.44;;;7.80;40.57
75219;BME280;63801;49.414;19.474;2023-02-28T09:52:55;94758.34;;;7.73;40.99
75219;BME280;63801;49.414;19.474;2023-02-28T09:55:17;94755.75;;;7.67;41.24
75219;BME280;63801;49.414;19.474;2023-02-28T09:57:45;94761.94;;;7.68;41.31
75219;BME280;63801;49.414;19.474;2023-02-28T10:06:50;94753.25;;;6.50;41.82
75219;BME280;63801;49.414;19.474;2023-02-28T10:09:31;94757.81;;;6.63;42.65
75219;BME280;63801;49.414;19.474;2023-02-28T10:11:37;94754.41;;;6.85;42.89
75219;BME280;63801;49.414;19.474;2023-02-28T10:13:49;94756.38;;;7.06;42.91
75219;BME280;63801;49.414;19.474;2023-02-28T10:15:55;94746.03;;;7.00;41.95
75219;BME280;63801;49.414;19.474;2023-02-28T10:18:01;94738.81;;;6.87;42.16
75219;BME280;63801;49.414;19.474;2023-02-28T10:20:11;94755.13;;;6.76;41.75
75219;BME280;63801;49.414;19.474;2023-02-28T10:22:17;94758.38;;;6.46;41.81
75219;BME280;63801;49.414;19.474;2023-02-28T10:24:41;94744.59;;;6.25;42.24
75219;BME280;63801;49.414;19.474;2023-02-28T10:26:44;94740.44;;;6.19;42.61
75219;BME280;63801;49.414;19.474;2023-02-28T10:28:46;94749.75;;;6.36;43.02
75219;BME280;63801;49.414;19.474;2023-02-28T10:30:49;94743.81;;;6.39;42.84
75219;BME280;63801;49.414;19.474;2023-02-28T10:32:51;94740.22;;;6.29;42.42
75219;BME280;63801;49.414;19.474;2023-02-28T10:37:14;94739.94;;;5.85;42.55
75219;BME280;63801;49.414;19.474;2023-02-28T10:41:42;94737.59;;;5.32;43.55
75219;BME280;63801;49.414;19.474;2023-02-28T10:43:43;94738.63;;;4.99;43.05
75219;BME280;63801;49.414;19.474;2023-02-28T10:46:15;94737.22;;;4.64;43.92
75219;BME280;63801;49.414;19.474;2023-02-28T10:48:41;94729.97;;;4.46;43.93
75219;BME280;63801;49.414;19.474;2023-02-28T10:50:50;94706.81;;;4.18;44.36
75219;BME280;63801;49.414;19.474;2023-02-28T10:52:53;94728.03;;;4.28;45.16
75219;BME280;63801;49.414;19.474;2023-02-28T10:55:14;94727.31;;;4.46;45.58
75219;BME280;63801;49.414;19.474;2023-02-28T10:57:20;94721.63;;;4.71;45.61
75219;BME280;63801;49.414;19.474;2023-02-28T10:59:29;94725.13;;;4.90;45.46
75219;BME280;63801;49.414;19.474;2023-02-28T11:01:43;94721.72;;;5.04;45.66
75219;BME280;63801;49.414;19.474;2023-02-28T11:03:52;94707.19;;;5.10;45.42
75219;BME280;63801;49.414;19.474;2023-02-28T11:05:53;94715.13;;;5.33;45.50
75219;BME280;63801;49.414;19.474;2023-02-28T11:07:56;94708.22;;;5.46;45.78
75219;BME280;63801;49.414;19.474;2023-02-28T11:09:57;94706.88;;;5.62;45.91
75219;BME280;63801;49.414;19.474;2023-02-28T11:11:58;94706.53;;;5.82;45.64
75219;BME280;63801;49.414;19.474;2023-02-28T11:14:19;94709.38;;;6.05;45.36
75219;BME280;63801;49.414;19.474;2023-02-28T11:16:21;94705.94;;;6.18;45.69
75219;BME280;63801;49.414;19.474;2023-02-28T11:18:23;94707.63;;;6.27;45.02
75219;BME280;63801;49.414;19.474;2023-02-28T11:20:26;94704.06;;;6.32;45.42
75219;BME280;63801;49.414;19.474;2023-02-28T11:22:31;94701.28;;;6.37;45.19
75219;BME280;63801;49.414;19.474;2023-02-28T11:24:44;94702.16;;;6.32;44.71
75219;BME280;63801;49.414;19.474;2023-02-28T11:26:48;94693.72;;;6.12;44.57
75219;BME280;63801;49.414;19.474;2023-02-28T11:29:09;94695.41;;;6.08;44.88
75219;BME280;63801;49.414;19.474;2023-02-28T11:35:32;94705.56;;;5.46;44.90
75219;BME280;63801;49.414;19.474;2023-02-28T11:37:35;94698.88;;;5.30;45.09
75219;BME280;63801;49.414;19.474;2023-02-28T11:39:35;94679.38;;;5.11;45.07
75219;BME280;63801;49.414;19.474;2023-02-28T11:51:35;94687.50;;;4.68;46.38
75219;BME280;63801;49.414;19.474;2023-02-28T11:56:32;94704.69;;;5.00;46.55